Time;durP1;ratioP1;P1;durP2;ratioP2;P2;SDS_P1;SDS_P2;PMS_P1;PMS_P2;Temp;Humidity;BMP_temperature;BMP_pressure;BME280_temperature;BME280_humidity;BME280_pressure;Samples;Min_cycle;Max_cycle;Signal;HPM_P1;HPM_P2
2022/09/21 00:01:25;;;;;;;;;11.00;8.00;;;;;14.78;55.65;102159.78;5079151;27;45578;-49
2022/09/21 00:03:57;;;;;;;;;8.67;6.00;;;;;14.74;55.33;102159.22;5079105;27;45356;-52
2022/09/21 00:06:24;;;;;;;;;8.00;4.67;;;;;14.75;55.54;102166.28;5079067;27;45393;-48
2022/09/21 00:08:50;;;;;;;;;5.67;5.67;;;;;14.72;55.81;102167.41;5078534;27;46483;-49
2022/09/21 00:11:23;;;;;;;;;5.67;4.67;;;;;14.72;55.78;102167.41;5078641;27;45363;-51
2022/09/21 00:13:56;;;;;;;;;8.00;6.00;;;;;14.72;55.29;102161.19;5079160;27;45398;-47
2022/09/21 00:16:22;;;;;;;;;4.67;4.67;;;;;14.69;55.56;102161.47;5079249;27;45491;-50
2022/09/21 00:18:48;;;;;;;;;5.00;3.33;;;;;14.69;55.62;102165.00;5078449;27;46355;-47
2022/09/21 00:21:15;;;;;;;;;5.67;5.00;;;;;14.70;55.44;102160.47;5078945;27;45386;-52
2022/09/21 00:23:41;;;;;;;;;5.00;4.00;;;;;14.67;55.45;102164.31;5078839;27;45426;-50
2022/09/21 00:26:17;;;;;;;;;7.00;3.00;;;;;14.67;55.33;102161.63;5078833;28;45423;-48
2022/09/21 00:28:45;;;;;;;;;4.00;4.00;;;;;14.68;55.59;102165.16;5078611;27;47323;-49
2022/09/21 00:31:13;;;;;;;;;8.00;6.33;;;;;14.66;55.48;102159.94;5078396;27;45397;-50
2022/09/21 00:33:39;;;;;;;;;9.00;3.67;;;;;14.66;55.03;102169.78;5078486;27;45879;-51
2022/09/21 00:36:07;;;;;;;;;7.67;3.00;;;;;14.65;55.56;102163.56;5078794;27;45407;-49
2022/09/21 00:38:33;;;;;;;;;4.33;3.00;;;;;14.65;55.65;102165.41;5078278;27;47361;-49
2022/09/21 00:40:59;;;;;;;;;5.00;4.33;;;;;14.60;55.67;102160.47;5077997;27;45239;-49
2022/09/21 00:43:24;;;;;;;;;5.00;4.67;;;;;14.60;55.37;102163.16;5078395;28;45294;-48
2022/09/21 00:45:58;;;;;;;;;5.00;5.00;;;;;14.59;56.08;102165.97;5078594;27;45409;-49
2022/09/21 00:48:24;;;;;;;;;4.00;3.00;;;;;14.58;56.19;102170.50;5078049;27;47374;-54
2022/09/21 00:50:54;;;;;;;;;4.00;3.00;;;;;14.50;56.22;102161.47;5078223;27;45237;-50
2022/09/21 00:53:21;;;;;;;;;4.67;4.67;;;;;14.52;55.93;102159.47;5077886;27;45299;-49
2022/09/21 00:55:51;;;;;;;;;13.33;6.33;;;;;14.50;56.81;102167.66;5078520;27;45227;-52
2022/09/21 00:58:30;;;;;;;;;5.00;5.00;;;;;14.45;56.75;102161.81;5078095;28;45357;-53
2022/09/21 01:00:58;;;;;;;;;6.33;4.00;;;;;14.44;56.51;102169.00;5078075;27;45357;-49
2022/09/21 01:03:24;;;;;;;;;4.00;4.00;;;;;14.42;57.18;102168.31;5078046;27;45318;-48
2022/09/21 01:05:49;;;;;;;;;9.33;4.33;;;;;14.38;56.91;102166.88;5094109;27;45493;-51
2022/09/21 01:08:16;;;;;;;;;9.33;6.00;;;;;14.35;57.62;102172.50;5077847;27;45303;-51
2022/09/21 01:11:19;;;;;;;;;6.67;5.00;;;;;14.31;57.68;102173.75;5078137;27;45461;-53
2022/09/21 01:14:03;;;;;;;;;4.67;3.00;;;;;14.28;57.40;102176.69;5077816;27;45420;-47
2022/09/21 01:16:47;;;;;;;;;4.67;4.67;;;;;14.22;57.67;102169.22;5078140;27;45264;-47
2022/09/21 01:19:21;;;;;;;;;4.67;3.67;;;;;14.22;58.09;102175.41;5077499;27;45795;-49
2022/09/21 01:22:02;;;;;;;;;4.67;3.33;;;;;14.20;58.50;102179.22;5077799;27;45173;-48
2022/09/21 01:25:05;;;;;;;;;6.67;4.33;;;;;14.18;58.09;102182.03;5077506;27;45278;-52
2022/09/21 01:28:07;;;;;;;;;6.00;4.00;;;;;14.15;58.47;102174.25;5015489;28;45338;-48
2022/09/21 01:30:36;;;;;;;;;7.00;4.00;;;;;14.15;58.13;102178.75;5014943;28;46817;-48
2022/09/21 01:33:23;;;;;;;;;8.67;7.00;;;;;14.12;58.56;102179.06;5014940;28;45343;-48
2022/09/21 01:35:55;;;;;;;;;7.00;4.67;;;;;14.11;58.82;102180.00;5015125;28;45637;-49
2022/09/21 01:38:27;;;;;;;;;4.67;4.67;;;;;14.07;58.74;102176.75;5015173;28;45582;-52
2022/09/21 01:40:59;;;;;;;;;4.00;4.00;;;;;14.01;58.73;102171.97;5014585;28;46224;-52
2022/09/21 01:43:32;;;;;;;;;6.33;3.00;;;;;14.02;58.15;102176.31;5014709;28;45369;-50
2022/09/21 01:46:02;;;;;;;;;8.00;7.67;;;;;14.03;58.58;102180.72;5014838;28;45315;-50
2022/09/21 01:48:34;;;;;;;;;5.33;5.33;;;;;14.02;58.87;102188.84;5014747;28;45322;-48
2022/09/21 01:51:03;;;;;;;;;4.00;4.00;;;;;14.00;59.07;102185.47;5014369;28;46373;-51
2022/09/21 01:53:38;;;;;;;;;8.33;4.00;;;;;13.99;58.89;102184.63;5014780;28;45414;-52
2022/09/21 01:56:14;;;;;;;;;4.00;4.00;;;;;13.99;59.22;102181.97;5014627;28;45290;-46
2022/09/21 01:59:07;;;;;;;;;5.00;5.00;;;;;13.97;59.20;102175.88;5015002;28;45563;-50
2022/09/21 02:01:42;;;;;;;;;7.67;5.00;;;;;13.95;59.38;102178.69;5014475;28;46364;-48
2022/09/21 02:04:11;;;;;;;;;2.67;2.67;;;;;13.95;59.64;102180.53;5045427;28;45538;-48
2022/09/21 02:06:40;;;;;;;;;5.33;4.67;;;;;13.93;59.24;102171.78;5076042;27;45314;-49
2022/09/21 02:09:07;;;;;;;;;6.67;5.33;;;;;13.92;59.60;102172.75;5077425;27;45324;-45
2022/09/21 02:11:32;;;;;;;;;8.67;7.00;;;;;13.81;59.90;102159.47;5076766;27;46282;-46
2022/09/21 02:13:58;;;;;;;;;8.00;5.33;;;;;13.90;59.79;102177.38;5076879;27;45343;-47
2022/09/21 02:16:34;;;;;;;;;7.67;4.00;;;;;13.86;59.81;102174.16;5077086;27;45370;-49
2022/09/21 02:19:10;;;;;;;;;4.00;4.00;;;;;13.81;59.27;102170.16;5077229;27;46038;-52
2022/09/21 02:22:02;;;;;;;;;8.00;5.00;;;;;13.81;59.57;102179.03;5076839;28;45332;-48
2022/09/21 02:24:36;;;;;;;;;7.67;6.00;;;;;13.79;59.84;102174.81;5076198;27;45392;-47
2022/09/21 02:27:23;;;;;;;;;10.00;5.67;;;;;13.79;60.03;102177.50;5076749;28;45313;-49
2022/09/21 02:30:00;;;;;;;;;8.00;4.67;;;;;13.79;60.24;102172.97;5076977;27;45515;-48
2022/09/21 02:32:37;;;;;;;;;8.00;4.00;;;;;13.78;60.47;102175.78;5076658;27;47326;-46
2022/09/21 02:35:16;;;;;;;;;7.67;5.00;;;;;13.79;60.23;102172.97;5076413;27;45458;-47
2022/09/21 02:37:55;;;;;;;;;5.33;4.33;;;;;13.79;60.45;102174.81;5076719;27;45438;-47
2022/09/21 02:40:43;;;;;;;;;7.00;4.67;;;;;13.66;60.18;102151.81;5076708;27;45368;-49
2022/09/21 02:43:21;;;;;;;;;8.00;6.00;;;;;13.76;60.12;102169.72;5076464;27;47055;-47
2022/09/21 02:45:53;;;;;;;;;10.33;8.67;;;;;13.76;60.46;102170.56;5076502;27;45326;-51
2022/09/21 02:48:31;;;;;;;;;9.67;7.00;;;;;13.77;60.48;102172.25;5076657;27;45443;-47
2022/09/21 02:51:01;;;;;;;;;10.00;7.00;;;;;13.74;60.72;102164.53;5076685;27;45559;-47
2022/09/21 02:53:32;;;;;;;;;12.33;9.00;;;;;13.73;60.72;102155.63;5076357;27;47306;-48
2022/09/21 02:56:05;;;;;;;;;8.67;8.67;;;;;13.71;60.54;102152.25;5075716;27;45438;-47
2022/09/21 02:58:36;;;;;;;;;9.67;8.67;;;;;13.70;60.37;102157.75;5076350;27;45489;-48
2022/09/21 03:01:06;;;;;;;;;10.67;6.33;;;;;13.69;60.71;102159.56;5076573;27;45444;-50
2022/09/21 03:03:31;;;;;;;;;6.33;6.33;;;;;13.69;60.94;102154.22;5076346;27;47204;-46
2022/09/21 03:05:57;;;;;;;;;9.33;8.00;;;;;13.68;60.40;102160.53;5075961;27;45370;-47
2022/09/21 03:08:23;;;;;;;;;8.67;6.67;;;;;13.68;60.91;102162.34;5076422;27;45957;-49
2022/09/21 03:10:49;;;;;;;;;9.00;6.00;;;;;13.67;60.87;102158.84;5076541;27;45468;-47
2022/09/21 03:13:15;;;;;;;;;7.33;4.00;;;;;13.67;61.10;102156.16;5074757;28;46914;-46
2022/09/21 03:15:41;;;;;;;;;8.33;5.00;;;;;13.66;60.78;102162.50;5076126;27;45397;-49
2022/09/21 03:18:09;;;;;;;;;9.00;6.00;;;;;13.66;60.82;102164.34;5078896;27;45397;-47
2022/09/21 03:20:35;;;;;;;;;9.00;8.33;;;;;13.65;61.25;102158.13;5079532;27;45457;-49
2022/09/21 03:23:01;;;;;;;;;7.00;7.00;;;;;13.64;61.26;102152.91;5079569;27;45338;-48
2022/09/21 03:25:29;;;;;;;;;8.33;8.33;;;;;13.62;61.01;102163.75;5079615;27;45360;-50
2022/09/21 03:27:56;;;;;;;;;8.00;7.00;;;;;13.62;61.20;102160.22;5080036;27;45260;-48
2022/09/21 03:30:23;;;;;;;;;8.00;8.00;;;;;13.56;61.08;102152.72;5079977;27;45532;-49
2022/09/21 03:32:52;;;;;;;;;8.33;7.00;;;;;13.59;61.17;102160.47;5079249;27;45408;-46
2022/09/21 03:35:18;;;;;;;;;9.00;6.33;;;;;13.57;61.36;102165.09;5079329;27;45445;-50
2022/09/21 03:37:45;;;;;;;;;8.67;6.00;;;;;13.56;61.49;102171.44;5079718;27;45471;-49
2022/09/21 03:40:11;;;;;;;;;8.33;7.00;;;;;13.54;61.43;102163.56;5079656;27;45382;-48
2022/09/21 03:42:38;;;;;;;;;9.00;8.33;;;;;13.53;61.73;102161.03;5079743;27;46903;-50
2022/09/21 03:45:03;;;;;;;;;7.33;7.33;;;;;13.51;61.53;102162.97;5079872;27;45480;-52
2022/09/21 03:47:29;;;;;;;;;7.33;6.67;;;;;13.50;61.06;102162.13;5080190;27;45353;-50
2022/09/21 03:49:54;;;;;;;;;9.00;9.00;;;;;13.49;61.69;102163.09;5079704;27;45342;-52
2022/09/21 03:52:19;;;;;;;;;8.00;7.67;;;;;13.47;61.20;102160.53;5079261;27;46201;-48
2022/09/21 03:54:45;;;;;;;;;10.67;8.00;;;;;13.45;62.07;102167.00;5079505;27;45373;-48
2022/09/21 03:57:10;;;;;;;;;7.00;7.00;;;;;13.45;61.71;102169.69;5079317;27;45478;-51
2022/09/21 03:59:36;;;;;;;;;10.33;8.33;;;;;13.41;61.77;102169.09;5079545;27;45338;-50
2022/09/21 04:02:01;;;;;;;;;14.00;10.67;;;;;13.40;61.72;102162.06;5078870;27;45531;-51
2022/09/21 04:04:27;;;;;;;;;15.00;13.33;;;;;13.35;61.88;102160.75;5078688;27;45360;-50
2022/09/21 04:06:52;;;;;;;;;21.33;14.67;;;;;13.37;62.13;102167.66;5079051;28;45381;-53
2022/09/21 04:09:17;;;;;;;;;18.00;13.00;;;;;13.35;62.26;102163.41;5079216;27;45375;-53
2022/09/21 04:11:47;;;;;;;;;15.00;15.00;;;;;13.34;62.11;102164.41;5078868;27;45403;-53
2022/09/21 04:14:12;;;;;;;;;15.67;14.00;;;;;13.19;62.28;102140.66;5078784;27;45311;-48
2022/09/21 04:16:38;;;;;;;;;23.67;15.67;;;;;13.29;61.92;102166.63;5078671;27;45324;-50
2022/09/21 04:19:03;;;;;;;;;22.33;18.67;;;;;13.27;62.47;102160.53;5079196;27;45459;-50
2022/09/21 04:21:29;;;;;;;;;22.33;19.00;;;;;13.25;62.76;102159.84;5078562;27;46443;-50
2022/09/21 04:23:54;;;;;;;;;23.67;21.33;;;;;13.25;62.31;102157.16;5078541;27;45319;-53
2022/09/21 04:26:29;;;;;;;;;23.67;23.33;;;;;13.23;62.10;102155.47;5078615;27;45473;-53
2022/09/21 04:28:55;;;;;;;;;41.00;25.00;;;;;13.22;62.49;102161.78;5077952;27;45387;-48
2022/09/21 04:31:22;;;;;;;;;28.00;24.33;;;;;13.21;62.73;102156.53;5078253;27;46339;-53
2022/09/21 04:33:49;;;;;;;;;26.67;23.00;;;;;13.11;62.35;102142.28;5078471;27;45317;-50
2022/09/21 04:36:15;;;;;;;;;27.33;24.67;;;;;13.19;62.77;102164.69;5078306;27;45381;-48
2022/09/21 04:38:41;;;;;;;;;30.00;24.67;;;;;13.18;62.31;102151.44;5078650;27;45446;-47
2022/09/21 04:41:06;;;;;;;;;27.00;23.67;;;;;13.15;62.74;102152.56;5077803;27;45977;-47
2022/09/21 04:43:32;;;;;;;;;32.67;29.67;;;;;13.16;62.34;102150.75;5078337;27;45823;-49
2022/09/21 04:45:57;;;;;;;;;27.33;23.00;;;;;13.13;62.80;102159.84;5078432;27;45417;-48
2022/09/21 04:48:23;;;;;;;;;34.67;31.00;;;;;13.14;62.34;102163.38;5078550;27;45361;-48
2022/09/21 04:50:49;;;;;;;;;37.67;29.33;;;;;13.06;62.67;102153.34;5077948;27;46278;-50
2022/09/21 04:53:15;;;;;;;;;42.33;30.67;;;;;13.12;62.79;102157.31;5078205;27;45405;-48
2022/09/21 04:55:40;;;;;;;;;36.67;30.33;;;;;12.97;62.48;102144.25;5078260;27;45275;-50
2022/09/21 04:58:06;;;;;;;;;34.33;32.00;;;;;13.10;62.60;102173.47;5078652;27;45344;-49
2022/09/21 05:00:31;;;;;;;;;38.67;30.67;;;;;13.09;62.58;102171.75;5077984;27;47173;-47
2022/09/21 05:02:57;;;;;;;;;29.33;25.00;;;;;13.08;62.42;102166.56;5078038;27;45452;-52
2022/09/21 05:05:22;;;;;;;;;31.00;26.67;;;;;13.11;62.64;102169.00;5076489;28;45318;-48
2022/09/21 05:07:48;;;;;;;;;24.00;18.33;;;;;13.10;62.79;102169.94;5078347;28;45361;-48
2022/09/21 05:10:13;;;;;;;;;23.33;18.67;;;;;13.09;62.58;102169.09;5093592;27;46104;-48
2022/09/21 05:12:40;;;;;;;;;15.67;15.33;;;;;13.04;62.88;102160.63;5077867;27;45237;-47
2022/09/21 05:15:06;;;;;;;;;17.00;12.67;;;;;13.08;62.46;102166.56;5078093;27;45304;-50
2022/09/21 05:17:32;;;;;;;;;14.33;8.67;;;;;13.06;62.51;102169.38;5077836;27;45350;-51
2022/09/21 05:19:57;;;;;;;;;22.00;16.67;;;;;13.07;62.77;102167.53;5077578;27;45961;-50
2022/09/21 05:22:22;;;;;;;;;17.33;13.33;;;;;13.05;62.84;102162.31;5077809;27;45338;-51
2022/09/21 05:24:48;;;;;;;;;20.33;10.67;;;;;13.04;62.88;102160.63;5077785;27;45240;-51
2022/09/21 05:27:13;;;;;;;;;12.00;8.67;;;;;12.94;62.64;102149.88;5078224;27;45219;-52
2022/09/21 05:29:40;;;;;;;;;9.00;9.00;;;;;13.02;62.70;102167.94;5077684;27;45258;-49
2022/09/21 05:32:35;;;;;;;;;10.00;8.67;;;;;13.02;62.25;102167.06;5077956;28;45547;-47
2022/09/21 05:35:12;;;;;;;;;8.00;8.00;;;;;13.01;62.90;102171.56;5077579;27;45468;-47
2022/09/21 05:37:56;;;;;;;;;15.33;8.67;;;;;12.99;62.80;102169.03;5077604;27;45321;-49
2022/09/21 05:40:22;;;;;;;;;9.67;9.00;;;;;12.99;62.90;102166.34;5077389;27;46428;-49
2022/09/21 05:42:47;;;;;;;;;11.67;9.00;;;;;12.98;63.18;102166.50;5077365;27;45369;-48
2022/09/21 05:45:16;;;;;;;;;14.00;9.67;;;;;12.99;62.73;102163.69;5077528;27;45356;-52
2022/09/21 05:47:53;;;;;;;;;12.67;11.00;;;;;13.01;63.04;102171.56;5077878;27;45460;-49
2022/09/21 05:50:32;;;;;;;;;7.67;7.33;;;;;13.01;63.05;102173.38;5077243;27;46312;-48
2022/09/21 05:53:19;;;;;;;;;9.00;9.00;;;;;13.01;63.19;102171.56;5077410;27;45334;-48
2022/09/21 05:55:47;;;;;;;;;14.00;9.00;;;;;13.02;63.38;102170.59;5077598;27;45287;-50
2022/09/21 05:58:25;;;;;;;;;8.67;7.33;;;;;12.98;63.07;102161.16;5077732;28;45380;-52
2022/09/21 06:01:09;;;;;;;;;8.67;4.00;;;;;13.06;63.01;102165.81;5077254;27;47441;-51
2022/09/21 06:03:36;;;;;;;;;14.00;10.00;;;;;13.04;63.21;102157.94;5077211;27;45490;-47
2022/09/21 06:06:01;;;;;;;;;12.67;8.67;;;;;12.93;63.59;102144.63;5077269;27;45453;-48
2022/09/21 06:08:26;;;;;;;;;12.67;9.67;;;;;13.05;63.05;102164.97;5077575;27;45390;-49
2022/09/21 06:10:53;;;;;;;;;14.67;12.00;;;;;13.08;62.80;102174.56;5077075;27;46011;-48
2022/09/21 06:13:18;;;;;;;;;12.00;11.00;;;;;13.10;63.14;102176.13;5077165;27;45581;-48
2022/09/21 06:15:44;;;;;;;;;12.00;9.33;;;;;13.13;63.11;102172.38;5077204;27;45292;-50
2022/09/21 06:18:09;;;;;;;;;13.00;11.67;;;;;13.14;62.80;102163.38;5077627;27;45318;-50
2022/09/21 06:20:35;;;;;;;;;12.33;10.67;;;;;13.13;63.13;102165.19;5076890;27;46241;-51
2022/09/21 06:23:09;;;;;;;;;9.00;9.00;;;;;13.13;63.02;102165.19;5076968;27;45211;-49
2022/09/21 06:25:35;;;;;;;;;17.67;11.33;;;;;13.18;62.79;102173.66;5077067;27;45165;-51
2022/09/21 06:28:03;;;;;;;;;13.33;10.33;;;;;13.22;62.73;102174.25;5077328;27;45504;-49
2022/09/21 06:30:29;;;;;;;;;14.33;9.00;;;;;13.25;63.04;102178.53;5077022;27;46933;-51
2022/09/21 06:32:58;;;;;;;;;10.00;9.00;;;;;13.27;62.85;102177.41;5076629;27;45397;-53
2022/09/21 06:35:23;;;;;;;;;13.33;10.67;;;;;13.29;62.83;102175.47;5077021;28;45448;-54
2022/09/21 06:37:48;;;;;;;;;13.67;11.67;;;;;13.32;62.53;102185.06;5077202;27;45319;-50
2022/09/21 06:40:14;;;;;;;;;13.67;10.33;;;;;13.35;62.57;102180.28;5076661;27;46067;-50
2022/09/21 06:42:39;;;;;;;;;13.67;12.33;;;;;13.37;62.34;102182.84;5076742;27;45401;-51
2022/09/21 06:45:05;;;;;;;;;13.00;11.33;;;;;13.40;62.49;102183.44;5076734;27;45320;-49
2022/09/21 06:47:30;;;;;;;;;12.00;11.33;;;;;13.46;62.79;102180.25;5076875;27;45418;-51
2022/09/21 06:49:56;;;;;;;;;15.00;10.67;;;;;13.48;62.26;102182.78;5076634;27;45843;-48
2022/09/21 06:52:21;;;;;;;;;14.33;10.00;;;;;13.53;62.10;102185.09;5078067;27;45366;-50
2022/09/21 06:54:47;;;;;;;;;15.33;11.33;;;;;13.55;62.26;102186.63;5080356;27;45410;-52
2022/09/21 06:57:12;;;;;;;;;21.00;11.33;;;;;13.56;61.56;102187.47;5080317;27;45439;-52
2022/09/21 06:59:37;;;;;;;;;13.00;11.67;;;;;13.58;61.85;102178.34;5079995;27;46147;-51
2022/09/21 07:02:03;;;;;;;;;15.33;9.00;;;;;13.57;61.84;102184.69;5080180;27;45202;-50
2022/09/21 07:04:28;;;;;;;;;11.33;10.67;;;;;13.62;61.98;102177.13;5080242;27;45780;-48
2022/09/21 07:06:54;;;;;;;;;13.00;10.67;;;;;13.66;62.09;102188.41;5080153;27;45438;-49
2022/09/21 07:09:19;;;;;;;;;17.00;11.00;;;;;13.69;60.96;102180.97;5079477;27;45323;-49
2022/09/21 07:11:45;;;;;;;;;14.67;12.00;;;;;13.71;61.73;102181.66;5079787;27;45455;-49
2022/09/21 07:14:10;;;;;;;;;11.33;11.33;;;;;13.73;61.92;102179.69;5080094;27;45312;-51
2022/09/21 07:16:36;;;;;;;;;16.67;13.67;;;;;13.80;61.99;102180.03;5080331;27;45318;-47
2022/09/21 07:19:03;;;;;;;;;13.67;12.00;;;;;13.80;61.52;102176.50;5079722;27;46023;-47
2022/09/21 07:21:28;;;;;;;;;15.33;11.67;;;;;13.91;61.45;102187.13;5079541;27;45457;-50
2022/09/21 07:23:53;;;;;;;;;12.33;10.33;;;;;13.97;61.37;102183.91;5079862;27;45393;-52
2022/09/21 07:26:21;;;;;;;;;12.00;12.00;;;;;14.00;61.04;102170.28;5080020;27;45334;-50
2022/09/21 07:28:46;;;;;;;;;15.33;14.00;;;;;14.04;61.02;102166.34;5079693;27;47156;-52
2022/09/21 07:31:14;;;;;;;;;15.00;11.67;;;;;14.17;60.35;102179.50;5079890;27;45211;-52
2022/09/21 07:33:40;;;;;;;;;16.67;12.00;;;;;14.22;60.19;102179.94;5080001;27;45677;-52
2022/09/21 07:36:10;;;;;;;;;15.33;11.67;;;;;14.27;59.78;102169.66;5080017;27;45403;-49
2022/09/21 07:38:36;;;;;;;;;15.33;14.00;;;;;14.32;60.15;102177.28;5079406;27;47028;-51
2022/09/21 07:41:02;;;;;;;;;13.67;12.00;;;;;14.37;59.46;102167.88;5079212;27;45207;-49
2022/09/21 07:43:27;;;;;;;;;18.00;14.67;;;;;14.39;59.76;102165.88;5079539;27;45876;-52
2022/09/21 07:45:54;;;;;;;;;14.67;13.33;;;;;14.37;59.51;102167.88;5073399;27;45763;-51
2022/09/21 07:48:21;;;;;;;;;20.67;15.00;;;;;14.43;59.17;102167.31;5033602;27;46462;-52
2022/09/21 07:50:48;;;;;;;;;20.67;14.33;;;;;14.43;59.29;102161.97;4976293;28;45381;-52
2022/09/21 07:53:15;;;;;;;;;17.00;14.67;;;;;14.49;58.80;102168.63;5038508;28;45417;-52
2022/09/21 07:55:40;;;;;;;;;14.67;11.67;;;;;14.51;58.76;102163.97;5079384;27;45540;-52
2022/09/21 08:00:50;;;;;;;;;16.67;12.00;;;;;14.61;58.58;102158.63;5020695;28;45417;-52
2022/09/21 08:03:15;;;;;;;;;19.00;14.33;;;;;14.70;58.75;102160.47;5078332;27;45292;-50
2022/09/21 08:05:40;;;;;;;;;15.33;14.00;;;;;14.80;58.71;102172.06;5079021;27;45252;-51
2022/09/21 08:08:07;;;;;;;;;15.67;10.67;;;;;14.89;58.13;102155.16;5078930;27;45812;-51
2022/09/21 08:10:34;;;;;;;;;17.67;12.33;;;;;15.03;57.85;102161.06;5079023;27;45284;-52
2022/09/21 08:12:59;;;;;;;;;20.33;15.67;;;;;15.13;57.49;102161.94;5078880;27;45333;-52
2022/09/21 08:15:26;;;;;;;;;13.67;13.00;;;;;15.25;57.11;102167.97;5079283;27;45343;-49
2022/09/21 08:17:52;;;;;;;;;16.00;14.00;;;;;15.38;56.78;102165.81;5078660;27;47079;-49
2022/09/21 08:20:18;;;;;;;;;13.00;10.67;;;;;15.52;56.40;102167.25;5078714;27;45331;-51
2022/09/21 08:22:43;;;;;;;;;16.67;16.00;;;;;15.66;55.90;102159.59;5078685;27;45421;-52
2022/09/21 08:25:09;;;;;;;;;12.00;11.33;;;;;16.71;54.47;102161.06;5078916;27;45298;-50
2022/09/21 08:27:35;;;;;;;;;17.67;11.00;;;;;18.97;49.90;102151.97;5078180;27;46265;-52
2022/09/21 08:30:01;;;;;;;;;13.00;12.00;;;;;20.99;45.94;102148.78;5078704;28;45284;-51
2022/09/21 08:32:27;;;;;;;;;16.33;15.00;;;;;22.53;41.34;102153.53;5078704;27;45229;-52
2022/09/21 08:34:53;;;;;;;;;14.00;11.33;;;;;23.92;38.69;102144.94;5078928;27;45402;-52
2022/09/21 08:37:20;;;;;;;;;15.33;13.00;;;;;25.08;36.36;102145.72;5078209;28;46025;-51
2022/09/21 08:39:46;;;;;;;;;15.25;12.25;;;;;26.24;35.73;102145.09;5078296;27;45280;-51
2022/09/21 08:42:38;;;;;;;;;11.25;9.25;;;;;27.32;33.34;102150.53;5078613;27;45390;-51
2022/09/21 08:45:10;;;;;;;;;15.25;12.00;;;;;28.13;35.77;102157.66;5077493;28;45312;-50
2022/09/21 08:47:39;;;;;;;;;10.20;8.80;;;;;28.64;33.93;102145.41;5078170;27;46187;-48
2022/09/21 08:50:20;;;;;;;;;9.80;9.20;;;;;29.26;31.30;102147.84;5078004;27;45432;-48
2022/09/21 08:52:47;;;;;;;;;11.60;10.60;;;;;29.84;29.67;102147.00;5078348;27;45283;-50
2022/09/21 08:55:18;;;;;;;;;7.80;7.80;;;;;30.39;28.33;102157.47;5078654;27;45342;-51
2022/09/21 08:57:44;;;;;;;;;11.00;8.40;;;;;30.65;28.80;102153.28;5093628;27;46513;-50
2022/09/21 09:00:15;;;;;;;;;10.00;7.00;;;;;30.87;28.22;102149.84;5078110;27;45359;-48
2022/09/21 09:03:02;;;;;;;;;12.60;9.20;;;;;31.09;28.38;102153.50;5078130;27;45536;-52
2022/09/21 09:05:50;;;;;;;;;9.40;8.00;;;;;31.24;27.70;102145.50;5078099;27;45333;-52
2022/09/21 09:08:55;;;;;;;;;13.40;8.20;;;;;31.79;26.14;102152.09;5077836;27;46162;-49
2022/09/21 09:11:26;;;;;;;;;10.60;7.40;;;;;32.09;25.29;102157.19;5077995;27;45317;-50
2022/09/21 09:14:24;;;;;;;;;7.60;6.60;;;;;32.52;27.10;102155.50;5078106;28;45393;-49
2022/09/21 09:17:14;;;;;;;;;6.60;6.60;;;;;32.38;25.06;102154.22;5078282;27;45530;-51
2022/09/21 09:19:53;;;;;;;;;7.40;7.40;;;;;31.67;27.06;102138.47;5078043;27;45465;-49
2022/09/21 09:22:26;;;;;;;;;9.20;8.80;;;;;31.23;27.96;102157.59;5077737;28;45505;-51
2022/09/21 09:25:00;;;;;;;;;5.40;5.40;;;;;30.98;27.10;102148.94;5077671;27;45487;-51
2022/09/21 09:27:25;;;;;;;;;9.60;7.80;;;;;30.74;27.29;102151.84;4998506;27;45490;-49
2022/09/21 09:30:01;;;;;;;;;7.25;7.25;;;;;30.61;26.58;102145.78;4975113;28;46120;-51
2022/09/21 09:32:56;;;;;;;;;6.20;5.40;;;;;30.30;27.86;102145.22;4975017;28;45485;-48
2022/09/21 09:35:46;;;;;;;;;4.80;4.40;;;;;30.01;26.58;102125.13;4914895;28;45880;-50
2022/09/21 09:38:33;;;;;;;;;4.40;4.40;;;;;30.12;28.98;102137.97;4915259;28;45316;-49
2022/09/21 09:41:09;;;;;;;;;4.00;4.00;;;;;30.41;26.79;102133.34;4914558;28;47260;-51
2022/09/21 09:44:00;;;;;;;;;7.00;5.40;;;;;30.71;27.02;102134.97;4914848;28;45328;-50
2022/09/21 09:46:49;;;;;;;;;8.40;6.80;;;;;30.81;27.59;102143.44;4936318;28;45272;-51
2022/09/21 09:49:47;;;;;;;;;7.80;7.40;;;;;31.05;27.43;102133.94;4936846;28;45566;-49
2022/09/21 09:52:15;;;;;;;;;5.20;4.20;;;;;31.32;26.63;102136.06;4936473;28;46422;-50
2022/09/21 09:54:40;;;;;;;;;5.80;5.80;;;;;31.67;27.46;102140.38;4936440;28;45312;-52
2022/09/21 09:57:08;;;;;;;;;7.75;6.00;;;;;32.14;24.99;102142.66;4936740;28;45369;-51
2022/09/21 09:59:54;;;;;;;;;6.00;5.20;;;;;33.17;23.58;102092.97;4936705;28;45599;-51
2022/09/21 10:02:22;;;;;;;;;6.60;6.00;;;;;35.53;22.70;102154.06;4936381;28;46951;-52
2022/09/21 10:05:04;;;;;;;;;9.80;8.20;;;;;37.25;22.71;102147.72;4936383;28;45383;-51
2022/09/21 10:07:37;;;;;;;;;7.80;7.40;;;;;38.35;21.46;102134.78;4936494;28;45546;-53
2022/09/21 10:10:20;;;;;;;;;9.20;7.80;;;;;39.72;16.68;102138.22;4936905;28;45511;-52
2022/09/21 10:12:46;;;;;;;;;3.40;3.40;;;;;40.72;16.29;102127.03;4976107;28;46579;-53
2022/09/21 10:15:12;;;;;;;;;6.20;6.20;;;;;41.43;16.63;102113.16;4995062;28;45345;-51
2022/09/21 10:17:38;;;;;;;;;6.00;6.00;;;;;41.71;17.25;102117.31;4994684;28;45338;-49
2022/09/21 10:20:07;;;;;;;;;5.25;5.00;;;;;42.24;15.25;102116.28;4994158;28;46078;-54
2022/09/21 10:22:33;;;;;;;;;4.80;4.20;;;;;42.82;15.67;102111.28;4992768;28;45863;-50
2022/09/21 10:25:00;;;;;;;;;5.00;4.00;;;;;43.56;13.72;102115.59;4974377;28;45463;-52
2022/09/21 10:27:34;;;;;;;;;6.40;5.00;;;;;44.42;13.86;102113.34;4975598;28;45288;-53
2022/09/21 10:30:00;;;;;;;;;4.00;4.00;;;;;43.92;14.32;102117.88;4977529;28;45439;-47
2022/09/21 10:32:28;;;;;;;;;6.60;4.80;;;;;44.55;13.68;102113.03;4977194;28;46128;-50
2022/09/21 10:35:11;;;;;;;;;6.00;4.60;;;;;45.37;12.73;102109.44;4977385;28;45420;-51
2022/09/21 10:37:42;;;;;;;;;5.40;4.40;;;;;45.75;13.90;102105.44;4977065;28;45342;-49
2022/09/21 10:40:16;;;;;;;;;5.60;5.20;;;;;46.24;11.85;102097.72;4977168;28;45500;-50
2022/09/21 10:42:42;;;;;;;;;5.60;5.60;;;;;45.47;13.32;102097.78;4977085;28;46635;-49
2022/09/21 10:45:15;;;;;;;;;4.50;3.00;;;;;43.91;13.70;102110.63;4975685;28;45423;-49
2022/09/21 10:47:58;;;;;;;;;2.40;2.40;;;;;44.86;12.82;102096.88;4977021;28;45386;-53
2022/09/21 10:50:33;;;;;;;;;4.80;3.00;;;;;46.02;12.02;102103.88;4997876;27;45252;-51
2022/09/21 10:53:17;;;;;;;;;2.60;2.20;;;;;46.54;11.57;102102.97;4996676;28;45278;-51
2022/09/21 10:56:01;;;;;;;;;3.40;2.00;;;;;47.04;11.06;102103.50;4996548;28;45241;-51
2022/09/21 10:58:26;;;;;;;;;3.80;3.80;;;;;46.64;11.20;102099.63;4996857;28;45279;-50
2022/09/21 11:00:54;;;;;;;;;3.00;3.00;;;;;43.47;13.32;102095.22;4996891;28;45505;-52
2022/09/21 11:03:28;;;;;;;;;2.00;2.00;;;;;40.06;15.32;102098.72;4996637;28;45343;-50
2022/09/21 11:05:58;;;;;;;;;3.80;3.80;;;;;37.62;18.02;102096.28;4996596;28;45478;-51
2022/09/21 11:08:29;;;;;;;;;2.40;2.20;;;;;39.03;15.97;102085.25;4996395;28;45315;-47
2022/09/21 11:11:29;;;;;;;;;4.00;4.00;;;;;40.54;15.91;102087.00;4997033;28;45226;-50
2022/09/21 11:14:18;;;;;;;;;1.00;1.00;;;;;39.38;15.31;102080.97;4955264;28;46113;-52
2022/09/21 11:17:02;;;;;;;;;5.20;2.20;;;;;36.44;18.11;102088.22;4955099;28;45376;-49
2022/09/21 11:19:32;;;;;;;;;2.60;2.60;;;;;38.08;16.81;102081.78;4955322;28;45355;-51
2022/09/21 11:22:01;;;;;;;;;4.60;3.20;;;;;40.22;15.34;102085.28;4955677;28;45488;-49
2022/09/21 11:24:44;;;;;;;;;3.20;2.40;;;;;41.15;14.20;102079.81;4954996;28;45541;-52
2022/09/21 11:27:37;;;;;;;;;3.00;2.00;;;;;39.79;14.92;102082.91;4954532;28;45427;-50
2022/09/21 11:30:10;;;;;;;;;1.40;1.40;;;;;36.66;16.96;102077.56;4955295;28;45392;-53
2022/09/21 11:32:58;;;;;;;;;1.60;1.60;;;;;38.53;16.62;102074.72;4955374;28;45444;-51
2022/09/21 11:35:44;;;;;;;;;1.00;1.00;;;;;37.60;16.53;102065.22;4955000;28;46053;-47
2022/09/21 11:38:28;;;;;;;;;4.40;2.80;;;;;35.16;18.08;102068.63;4954672;28;45566;-49
2022/09/21 11:41:25;;;;;;;;;3.00;3.00;;;;;32.63;20.22;102069.09;4954765;28;45339;-50